This is the latest recevied weather packets stored in our database for station/object KJ5JYX. If no packets are shown the sender has not sent any weather packets the latest 10 day(s).
| Time | Temp. | Humidity | Pressure | Rain* | Wind** | Luminosity | Snow |
|---|---|---|---|---|---|---|---|
| 1777486942 | 21.67° C | 87% | 1014 hPa | 0 mm | - | 142 W/m² | - |
| 1777486639 | 22.22° C | 87% | 1014.4 hPa | 0 mm | - | 130 W/m² | - |
| 1777486337 | 22.78° C | 86% | 1014.4 hPa | 0 mm | - | 121 W/m² | - |
| 1777486034 | 22.78° C | 86% | 1014.1 hPa | 0 mm | - | 178 W/m² | - |
| 1777485731 | 22.78° C | 86% | 1014.1 hPa | 0 mm | - | 169 W/m² | - |
| 1777485426 | 23.33° C | 86% | 1014 hPa | 0 mm | - | 140 W/m² | - |
| 1777485122 | 23.89° C | 86% | 1014 hPa | 0 mm | - | 125 W/m² | - |
| 1777484819 | 24.44° C | 85% | 1014 hPa | 0 mm | - | 181 W/m² | - |
| 1777484516 | 23.89° C | 85% | 1014.1 hPa | 0 mm | - | 268 W/m² | - |
| 1777484213 | 22.78° C | 88% | 1014.2 hPa | 0 mm | - | 490 W/m² | - |
| 1777483909 | 22.78° C | 88% | 1014.3 hPa | 0 mm | - | 250 W/m² | - |
| 1777483605 | 22.22° C | 90% | 1014.1 hPa | 0 mm | - | 357 W/m² | - |
| 1777483300 | 21.67° C | 90% | 1014.3 hPa | 0 mm | - | 200 W/m² | - |
| 1777482997 | 22.22° C | 90% | 1014.1 hPa | 0 mm | - | 108 W/m² | - |
| 1777482693 | 22.22° C | 90% | 1014.1 hPa | 0 mm | - | 119 W/m² | - |
| 1777482389 | 22.78° C | 90% | 1014.3 hPa | 0 mm | - | 169 W/m² | - |
| 1777482087 | 23.33° C | 91% | 1014.1 hPa | 0 mm | - | 121 W/m² | - |
| 1777481785 | 23.33° C | 92% | 1014.3 hPa | 0 mm | - | 62 W/m² | - |
| 1777481482 | 23.33° C | 92% | 1014.4 hPa | 0 mm | - | 57 W/m² | - |
| 1777481178 | 23.33° C | 92% | 1014.5 hPa | 0 mm | - | 57 W/m² | - |
| 1777480875 | 23.33° C | 93% | 1014.4 hPa | 0 mm | - | 61 W/m² | - |
| 1777480571 | 23.33° C | 92% | 1014.5 hPa | 0 mm | - | 72 W/m² | - |
| 1777480269 | 23.89° C | 90% | 1014.8 hPa | 0 mm | - | 21 W/m² | - |
| 1777479964 | 26.11° C | 88% | 1014.8 hPa | 0 mm | - | 12 W/m² | - |
| 1777479661 | 27.22° C | 88% | 1014.4 hPa | 0 mm | - | 25 W/m² | - |
* Rain latest hour (hover to see other rain measurements)
** Current wind speed in m/s (hover to see current wind gust speed)